Baarn, Netherlands
Current Conditions -  °F | °C
As of 1:55 PM on Thursday 27 Nov 2014 (Local Time) from EHAM Reporting Station
Broken Clouds Broken Clouds  
Wind Chill: 45°   Ceiling: 1300
Heat Index: 48°   Visibility: 6mi
Dew Point: 45°   Wind: 7mph
Humidity: 87%   Direction: 120°ESE
Pressure: 29.71"   Gusts: NA
Location:  52.21°N, 5.29°E
Report Text: EHAM 271255Z 12006KT 090V150 9999 BKN013 09/07 Q1006 BECMGBKN015
Loading
Personal Weather Stations






























Interactive Weather Map New forecast layout! Learn more

10-Day Weather Forecast

Advertisements
Track Severe Weather on mobile